Time;durP1;ratioP1;P1;durP2;ratioP2;P2;SDS_P1;SDS_P2;PMS_P1;PMS_P2;Temp;Humidity;BMP_temperature;BMP_pressure;BME280_temperature;BME280_humidity;BME280_pressure;Samples;Min_cycle;Max_cycle;Signal;HPM_P1;HPM_P2
2023/05/15 00:00:33;;;;;;;10.77;6.68;;;;;;;;;;10299711;28;20568;-85
2023/05/15 00:05:35;;;;;;;16.90;8.90;;;;;;;;;;10294697;23;20063;-84
2023/05/15 00:10:36;;;;;;;17.35;9.05;;;;;;;;;;10278110;28;20034;-84
2023/05/15 00:15:37;;;;;;;15.05;8.80;;;;;;;;;;10274011;28;20031;-84
2023/05/15 00:20:40;;;;;;;19.38;9.57;;;;;;;;;;10274066;28;20136;-84
2023/05/15 00:25:41;;;;;;;20.90;10.57;;;;;;;;;;10279243;28;20034;-83
2023/05/15 00:30:43;;;;;;;28.35;11.95;;;;;;;;;;10274166;28;20738;-83
2023/05/15 00:35:44;;;;;;;29.48;13.82;;;;;;;;;;10249353;28;20046;-84
2023/05/15 00:40:45;;;;;;;23.48;12.98;;;;;;;;;;10242202;28;20136;-83
2023/05/15 00:45:46;;;;;;;32.83;15.32;;;;;;;;;;10246321;28;20063;-83
2023/05/15 00:50:50;;;;;;;31.40;16.80;;;;;;;;;;10248178;28;20113;-84
2023/05/15 00:55:52;;;;;;;42.00;18.60;;;;;;;;;;10233516;28;20030;-85
2023/05/15 01:00:53;;;;;;;35.38;17.85;;;;;;;;;;10252391;28;20043;-84
2023/05/15 01:05:54;;;;;;;37.15;17.98;;;;;;;;;;10252498;28;20035;-84
2023/05/15 01:10:56;;;;;;;36.25;19.13;;;;;;;;;;10230751;28;20471;-84
2023/05/15 01:15:59;;;;;;;45.53;19.48;;;;;;;;;;10238997;28;20094;-85
2023/05/15 01:21:09;;;;;;;43.03;21.70;;;;;;;;;;10255727;28;20467;-84
2023/05/15 01:26:10;;;;;;;43.15;21.00;;;;;;;;;;10244914;28;20815;-84
2023/05/15 01:31:15;;;;;;;43.03;20.58;;;;;;;;;;10242562;28;20090;-84
2023/05/15 01:36:21;;;;;;;50.47;22.43;;;;;;;;;;10228325;28;20604;-84
2023/05/15 01:41:22;;;;;;;;;;;;;;;;;;10244413;28;20747;-84
2023/05/15 01:46:26;;;;;;;50.67;21.17;;;;;;;;;;10241182;28;19919;-84
2023/05/15 01:51:27;;;;;;;38.47;20.20;;;;;;;;;;10245782;28;20740;-83
2023/05/15 01:56:29;;;;;;;41.75;19.35;;;;;;;;;;10245372;28;20118;-86
2023/05/15 02:01:32;;;;;;;33.08;15.73;;;;;;;;;;10234210;28;20065;-84
2023/05/15 02:06:33;;;;;;;28.85;15.60;;;;;;;;;;10245273;28;20038;-85
2023/05/15 02:11:35;;;;;;;26.35;14.40;;;;;;;;;;10237410;28;20067;-85
2023/05/15 02:16:36;;;;;;;27.00;13.52;;;;;;;;;;10219828;28;20049;-84
2023/05/15 02:21:37;;;;;;;24.60;12.93;;;;;;;;;;10246465;28;20073;-85
2023/05/15 02:27:00;;;;;;;25.00;13.48;;;;;;;;;;10253628;28;20723;-84
2023/05/15 02:32:20;;;;;;;34.92;14.77;;;;;;;;;;10225755;28;20039;-84
2023/05/15 02:37:27;;;;;;;29.38;13.55;;;;;;;;;;10221651;28;20130;-86
2023/05/15 02:42:29;;;;;;;29.35;13.90;;;;;;;;;;10232948;28;20096;-85
2023/05/15 02:47:32;;;;;;;24.92;12.48;;;;;;;;;;10242903;28;20031;-85
2023/05/15 02:52:36;;;;;;;31.13;14.98;;;;;;;;;;10227503;28;20050;-85
2023/05/15 02:57:37;;;;;;;29.10;13.07;;;;;;;;;;10240127;28;20118;-84
2023/05/15 03:02:38;;;;;;;26.38;13.43;;;;;;;;;;10246963;28;20055;-84
2023/05/15 03:07:40;;;;;;;30.77;15.35;;;;;;;;;;10248072;28;20030;-86
2023/05/15 03:12:43;;;;;;;22.98;11.90;;;;;;;;;;10240737;28;20067;-85
2023/05/15 03:17:44;;;;;;;31.42;12.68;;;;;;;;;;10223729;28;20035;-87
2023/05/15 03:22:47;;;;;;;24.38;12.57;;;;;;;;;;10242485;28;20077;-85
2023/05/15 03:27:50;;;;;;;26.17;12.50;;;;;;;;;;10242949;28;20038;-84
2023/05/15 03:32:52;;;;;;;31.92;13.25;;;;;;;;;;10227647;28;20034;-84
2023/05/15 03:37:52;;;;;;;25.63;11.73;;;;;;;;;;10247287;28;20054;-86
2023/05/15 03:42:54;;;;;;;29.45;13.32;;;;;;;;;;10240006;28;20038;-85
2023/05/15 03:47:55;;;;;;;29.92;12.55;;;;;;;;;;10236107;28;20035;-83
2023/05/15 03:52:56;;;;;;;49.10;18.92;;;;;;;;;;10234405;28;20039;-85
2023/05/15 03:57:58;;;;;;;36.83;15.75;;;;;;;;;;10226709;28;20082;-85
2023/05/15 04:03:02;;;;;;;33.28;17.05;;;;;;;;;;10230529;28;20061;-86
2023/05/15 04:08:03;;;;;;;41.47;17.92;;;;;;;;;;10254325;28;20030;-87
2023/05/15 04:13:04;;;;;;;50.03;21.25;;;;;;;;;;10251484;28;20470;-87
2023/05/15 04:18:05;;;;;;;44.72;18.02;;;;;;;;;;10220413;28;20030;-87
2023/05/15 04:23:06;;;;;;;41.65;19.17;;;;;;;;;;10246758;28;20487;-89
2023/05/15 04:28:09;;;;;;;40.78;18.90;;;;;;;;;;10254014;28;20123;-87
2023/05/15 04:33:12;;;;;;;35.70;16.58;;;;;;;;;;10254408;28;20438;-87
2023/05/15 04:38:13;;;;;;;42.50;17.65;;;;;;;;;;10247554;28;20038;-86
2023/05/15 04:43:16;;;;;;;32.67;16.33;;;;;;;;;;10247179;28;20523;-86
2023/05/15 04:48:19;;;;;;;41.08;18.52;;;;;;;;;;10247190;28;20045;-87
2023/05/15 04:53:20;;;;;;;44.88;18.35;;;;;;;;;;10247167;28;20034;-87
2023/05/15 04:58:21;;;;;;;40.80;16.80;;;;;;;;;;10247092;28;20031;-87
2023/05/15 05:03:22;;;;;;;37.55;17.10;;;;;;;;;;10246637;28;20584;-87
2023/05/15 05:08:25;;;;;;;30.25;14.52;;;;;;;;;;10247115;28;20780;-86
2023/05/15 05:13:26;;;;;;;34.70;16.35;;;;;;;;;;10245798;28;20038;-86
2023/05/15 05:18:27;;;;;;;33.88;16.52;;;;;;;;;;10229022;28;20032;-87
2023/05/15 05:23:29;;;;;;;31.35;15.65;;;;;;;;;;10228337;28;20043;-87
2023/05/15 05:28:29;;;;;;;29.35;15.10;;;;;;;;;;10245187;28;20090;-86
2023/05/15 05:33:30;;;;;;;28.30;14.43;;;;;;;;;;10258298;28;20031;-86
2023/05/15 05:38:32;;;;;;;29.52;15.18;;;;;;;;;;10227688;28;20028;-86
2023/05/15 05:43:33;;;;;;;29.92;16.00;;;;;;;;;;10245549;28;20050;-85
2023/05/15 05:48:35;;;;;;;31.85;14.80;;;;;;;;;;10244669;28;20078;-86
2023/05/15 05:53:36;;;;;;;26.40;14.52;;;;;;;;;;10244531;28;20045;-85
2023/05/15 05:58:37;;;;;;;29.92;14.90;;;;;;;;;;10227149;28;20543;-86
2023/05/15 06:03:38;;;;;;;27.00;15.25;;;;;;;;;;10244823;28;20850;-87
2023/05/15 06:08:41;;;;;;;28.17;16.30;;;;;;;;;;10226928;28;20039;-86
2023/05/15 06:13:44;;;;;;;27.90;14.75;;;;;;;;;;10244239;28;20039;-86
2023/05/15 06:18:47;;;;;;;25.27;13.32;;;;;;;;;;10243981;28;20027;-87
2023/05/15 06:23:48;;;;;;;36.65;17.95;;;;;;;;;;10243001;28;20035;-86
2023/05/15 06:28:49;;;;;;;24.88;13.77;;;;;;;;;;10243151;28;20028;-86
2023/05/15 06:33:50;;;;;;;22.13;12.23;;;;;;;;;;10243053;28;20035;-86
2023/05/15 06:38:51;;;;;;;22.83;12.45;;;;;;;;;;10243242;28;20038;-86
2023/05/15 06:43:54;;;;;;;18.67;10.48;;;;;;;;;;10255574;28;20043;-86
2023/05/15 06:48:56;;;;;;;19.98;10.70;;;;;;;;;;10225015;28;20082;-87
2023/05/15 06:53:57;;;;;;;21.23;12.10;;;;;;;;;;10242529;28;20035;-87
2023/05/15 06:59:01;;;;;;;14.55;8.43;;;;;;;;;;10242725;28;20031;-86
2023/05/15 07:04:02;;;;;;;24.17;9.70;;;;;;;;;;10242169;28;20562;-87
2023/05/15 07:09:03;;;;;;;23.70;10.38;;;;;;;;;;10242483;28;20045;-87
2023/05/15 07:14:07;;;;;;;28.75;13.27;;;;;;;;;;10224414;28;20031;-86
2023/05/15 07:19:10;;;;;;;45.70;14.45;;;;;;;;;;10241911;28;20042;-87
2023/05/15 07:24:11;;;;;;;32.85;14.88;;;;;;;;;;10241050;28;20042;-87
2023/05/15 07:29:12;;;;;;;39.80;16.65;;;;;;;;;;10241200;28;20032;-87
2023/05/15 07:34:13;;;;;;;38.72;18.08;;;;;;;;;;10224053;28;20035;-87
2023/05/15 07:39:14;;;;;;;48.35;19.83;;;;;;;;;;10241726;28;20026;-87
2023/05/15 07:44:15;;;;;;;67.15;22.75;;;;;;;;;;10241290;28;20035;-87
2023/05/15 07:49:16;;;;;;;53.25;20.08;;;;;;;;;;10227874;28;20038;-87
2023/05/15 07:54:17;;;;;;;42.28;18.75;;;;;;;;;;10236610;28;20031;-87
2023/05/15 07:59:18;;;;;;;30.25;16.58;;;;;;;;;;10254212;28;20410;-87
2023/05/15 08:04:21;;;;;;;41.05;17.05;;;;;;;;;;10266587;28;20093;-87
2023/05/15 08:09:22;;;;;;;59.08;16.63;;;;;;;;;;10253578;28;20392;-87
2023/05/15 08:14:23;;;;;;;29.70;13.30;;;;;;;;;;10253385;28;20042;-87
2023/05/15 08:19:27;;;;;;;33.78;14.75;;;;;;;;;;10253806;28;20406;-87
2023/05/15 08:24:28;;;;;;;39.17;14.65;;;;;;;;;;10253371;28;20043;-88
2023/05/15 08:29:29;;;;;;;33.72;12.43;;;;;;;;;;10236066;28;20460;-87
2023/05/15 08:34:32;;;;;;;26.20;10.65;;;;;;;;;;10235815;28;20774;-87
2023/05/15 08:39:33;;;;;;;59.72;13.93;;;;;;;;;;10253169;28;20031;-87
2023/05/15 08:44:36;;;;;;;22.85;9.38;;;;;;;;;;10253856;28;20035;-87
2023/05/15 08:49:45;;;;;;;18.55;10.05;;;;;;;;;;10253053;28;20046;-87
2023/05/15 08:54:49;;;;;;;16.67;9.30;;;;;;;;;;10253954;28;20039;-87
2023/05/15 08:59:50;;;;;;;18.15;8.13;;;;;;;;;;10234806;28;20062;-87
2023/05/15 09:04:51;;;;;;;14.55;7.93;;;;;;;;;;10246585;28;20532;-87
2023/05/15 09:09:54;;;;;;;14.25;7.80;;;;;;;;;;10246759;28;20038;-86
2023/05/15 09:15:12;;;;;;;20.73;8.90;;;;;;;;;;10228754;28;20039;-88
2023/05/15 09:20:26;;;;;;;16.15;8.05;;;;;;;;;;10228547;28;20039;-87
2023/05/15 09:25:33;;;;;;;14.10;7.18;;;;;;;;;;10245647;28;20446;-86
2023/05/15 09:30:37;;;;;;;9.07;6.13;;;;;;;;;;10234275;28;20027;-87
2023/05/15 09:35:39;;;;;;;16.60;8.13;;;;;;;;;;10245618;28;20735;-86
2023/05/15 09:40:40;;;;;;;17.75;9.90;;;;;;;;;;10228171;28;20386;-86
2023/05/15 09:45:41;;;;;;;18.27;9.68;;;;;;;;;;10245253;28;20385;-87
2023/05/15 09:50:42;;;;;;;19.17;10.77;;;;;;;;;;10245117;28;20027;-86
2023/05/15 09:55:43;;;;;;;16.00;8.02;;;;;;;;;;10246014;28;20035;-86
2023/05/15 10:00:46;;;;;;;14.43;7.03;;;;;;;;;;10227123;28;20047;-87
2023/05/15 10:05:47;;;;;;;17.45;7.72;;;;;;;;;;10227218;28;20163;-87
2023/05/15 10:10:48;;;;;;;9.55;5.53;;;;;;;;;;10226437;28;20367;-87
2023/05/15 10:15:50;;;;;;;13.15;6.43;;;;;;;;;;10244000;28;20031;-87
2023/05/15 10:20:51;;;;;;;12.25;6.28;;;;;;;;;;10244244;28;20059;-87
2023/05/15 10:25:57;;;;;;;19.45;7.80;;;;;;;;;;10244001;28;20145;-87
2023/05/15 10:31:01;;;;;;;16.92;8.02;;;;;;;;;;10243669;28;20023;-86
2023/05/15 10:36:05;;;;;;;15.70;7.43;;;;;;;;;;10242866;28;20023;-87
2023/05/15 10:41:06;;;;;;;13.43;6.72;;;;;;;;;;10225896;28;20039;-87
2023/05/15 10:46:08;;;;;;;11.63;7.20;;;;;;;;;;10225841;28;20399;-87
2023/05/15 10:51:18;;;;;;;11.45;7.00;;;;;;;;;;10225769;28;20070;-87
2023/05/15 10:56:20;;;;;;;23.85;13.68;;;;;;;;;;10243500;28;20037;-87
2023/05/15 11:01:31;;;;;;;32.53;17.17;;;;;;;;;;10224373;28;20063;-87
2023/05/15 11:06:32;;;;;;;27.92;14.82;;;;;;;;;;10225211;28;20042;-87
2023/05/15 11:11:52;;;;;;;24.88;12.90;;;;;;;;;;10241927;28;20023;-87
2023/05/15 11:16:53;;;;;;;21.48;11.52;;;;;;;;;;10233256;28;20395;-86
2023/05/15 11:22:03;;;;;;;19.08;11.07;;;;;;;;;;10231616;28;20042;-87
2023/05/15 11:27:04;;;;;;;20.13;10.63;;;;;;;;;;10241198;28;20034;-87
2023/05/15 11:32:25;;;;;;;15.95;8.88;;;;;;;;;;10242419;28;20724;-87
2023/05/15 11:37:27;;;;;;;11.63;7.72;;;;;;;;;;10246936;28;20027;-87
2023/05/15 11:42:28;;;;;;;14.93;9.20;;;;;;;;;;10261685;28;20046;-86
2023/05/15 11:47:31;;;;;;;32.97;10.32;;;;;;;;;;10241344;28;20391;-86
2023/05/15 11:52:32;;;;;;;12.57;8.50;;;;;;;;;;10241380;28;20034;-87
2023/05/15 11:57:33;;;;;;;16.38;11.40;;;;;;;;;;10240734;28;20039;-88
2023/05/15 12:02:34;;;;;;;18.63;13.65;;;;;;;;;;10223736;28;20875;-85
2023/05/15 12:07:37;;;;;;;17.40;13.23;;;;;;;;;;10240917;28;20035;-86
2023/05/15 12:12:39;;;;;;;36.45;13.77;;;;;;;;;;10240764;28;20063;-87
2023/05/15 12:17:41;;;;;;;21.15;14.70;;;;;;;;;;10240790;28;20026;-86
2023/05/15 12:22:42;;;;;;;21.73;13.00;;;;;;;;;;10240324;28;20043;-86
2023/05/15 12:27:44;;;;;;;22.23;14.50;;;;;;;;;;10241343;28;20035;-86
2023/05/15 12:32:45;;;;;;;22.15;15.05;;;;;;;;;;10240748;28;20027;-86
2023/05/15 12:37:46;;;;;;;15.35;9.45;;;;;;;;;;10241935;28;20660;-86
2023/05/15 12:42:52;;;;;;;57.67;46.50;;;;;;;;;;10247583;28;20110;-86
2023/05/15 12:47:53;;;;;;;16.83;12.30;;;;;;;;;;10247617;28;20031;-86
2023/05/15 12:52:55;;;;;;;42.70;31.38;;;;;;;;;;10247632;28;20031;-86
2023/05/15 12:57:56;;;;;;;10.30;7.60;;;;;;;;;;10246810;28;20051;-85
2023/05/15 13:02:58;;;;;;;33.05;17.45;;;;;;;;;;10246768;28;20157;-84
2023/05/15 13:07:59;;;;;;;21.75;12.07;;;;;;;;;;10228927;28;20059;-85
2023/05/15 13:13:01;;;;;;;24.90;17.92;;;;;;;;;;10246541;28;20491;-85
2023/05/15 13:18:03;;;;;;;13.52;10.43;;;;;;;;;;10246959;28;20046;-85
2023/05/15 13:23:05;;;;;;;8.50;6.72;;;;;;;;;;10245637;28;20043;-84
2023/05/15 13:28:06;;;;;;;14.15;9.52;;;;;;;;;;10246190;28;20115;-87
2023/05/15 13:33:08;;;;;;;10.98;8.10;;;;;;;;;;10246020;28;20598;-83
2023/05/15 13:38:10;;;;;;;7.10;6.13;;;;;;;;;;10246079;28;20506;-86
2023/05/15 13:43:11;;;;;;;12.57;8.60;;;;;;;;;;10245221;28;20130;-84
2023/05/15 13:48:11;;;;;;;11.65;8.80;;;;;;;;;;10244226;28;20475;-82
2023/05/15 13:53:15;;;;;;;11.50;7.40;;;;;;;;;;10211765;28;20050;-83
2023/05/15 13:58:17;;;;;;;8.43;5.90;;;;;;;;;;10228286;28;20042;-84
2023/05/15 14:03:21;;;;;;;3.17;2.85;;;;;;;;;;10236535;28;20059;-84
2023/05/15 14:08:22;;;;;;;4.20;2.17;;;;;;;;;;10236931;28;20654;-85
2023/05/15 14:13:23;;;;;;;2.08;1.80;;;;;;;;;;10221699;28;20039;-86
2023/05/15 14:18:25;;;;;;;2.53;2.05;;;;;;;;;;10230294;28;20035;-84
2023/05/15 14:23:25;;;;;;;9.40;4.20;;;;;;;;;;10231960;28;20108;-86
2023/05/15 14:28:26;;;;;;;3.47;2.17;;;;;;;;;;10233627;28;20748;-83
2023/05/15 14:33:27;;;;;;;2.78;1.90;;;;;;;;;;10240178;28;20499;-84
2023/05/15 14:38:28;;;;;;;5.05;1.98;;;;;;;;;;10245108;28;20035;-83
2023/05/15 14:43:29;;;;;;;5.07;2.92;;;;;;;;;;10237550;28;20475;-82
2023/05/15 14:48:30;;;;;;;6.80;2.83;;;;;;;;;;10244276;28;20794;-82
2023/05/15 14:53:33;;;;;;;3.03;2.30;;;;;;;;;;10243623;28;20045;-83
2023/05/15 14:58:34;;;;;;;2.72;2.13;;;;;;;;;;10240345;28;20027;-82
2023/05/15 15:03:35;;;;;;;1.80;1.70;;;;;;;;;;10236731;28;20182;-82
2023/05/15 15:08:38;;;;;;;3.42;2.28;;;;;;;;;;10241000;28;20142;-83
2023/05/15 15:13:39;;;;;;;2.33;2.10;;;;;;;;;;10222819;28;20031;-83
2023/05/15 15:18:42;;;;;;;3.75;1.92;;;;;;;;;;10254909;28;20039;-82
2023/05/15 15:23:44;;;;;;;2.65;1.90;;;;;;;;;;10240331;28;20150;-82
2023/05/15 15:28:45;;;;;;;2.15;1.65;;;;;;;;;;10241856;28;20110;-82
2023/05/15 15:33:47;;;;;;;3.35;1.70;;;;;;;;;;10242456;28;20566;-86
2023/05/15 15:38:50;;;;;;;5.93;1.70;;;;;;;;;;10252654;29;20042;-82
2023/05/15 15:43:52;;;;;;;2.30;1.10;;;;;;;;;;10252404;29;20040;-85
2023/05/15 15:48:53;;;;;;;2.30;1.65;;;;;;;;;;10234900;29;20065;-83
2023/05/15 15:53:54;;;;;;;1.63;1.15;;;;;;;;;;10235148;29;20053;-83
2023/05/15 15:58:55;;;;;;;1.35;1.00;;;;;;;;;;10252171;29;20553;-86
2023/05/15 16:03:56;;;;;;;1.40;1.00;;;;;;;;;;10252233;29;20180;-84
2023/05/15 16:08:57;;;;;;;1.73;1.40;;;;;;;;;;10252234;28;20062;-82
2023/05/15 16:13:58;;;;;;;4.07;1.77;;;;;;;;;;10259838;29;20061;-81
2023/05/15 16:18:59;;;;;;;3.90;1.73;;;;;;;;;;10242891;29;20476;-83
2023/05/15 16:24:00;;;;;;;2.58;1.80;;;;;;;;;;10242063;29;20039;-84
2023/05/15 16:29:04;;;;;;;4.20;2.40;;;;;;;;;;10242138;29;20066;-86
2023/05/15 16:34:10;;;;;;;4.03;2.07;;;;;;;;;;10258464;29;20090;-82
2023/05/15 16:39:11;;;;;;;3.65;2.58;;;;;;;;;;10246504;28;20428;-83
2023/05/15 16:44:16;;;;;;;3.60;2.20;;;;;;;;;;10231894;28;20047;-83
2023/05/15 16:49:19;;;;;;;4.80;2.72;;;;;;;;;;10219220;28;20042;-85
2023/05/15 16:54:25;;;;;;;3.03;2.00;;;;;;;;;;10250348;28;20032;-81
2023/05/15 16:59:26;;;;;;;3.13;1.80;;;;;;;;;;10229929;28;20023;-82
2023/05/15 17:04:30;;;;;;;5.15;1.80;;;;;;;;;;10235526;28;20055;-81
2023/05/15 17:09:31;;;;;;;3.42;1.60;;;;;;;;;;10247883;28;20031;-85
2023/05/15 17:14:32;;;;;;;3.33;1.80;;;;;;;;;;10252353;28;20023;-83
2023/05/15 17:19:33;;;;;;;4.78;2.20;;;;;;;;;;10230973;28;20498;-85
2023/05/15 17:24:34;;;;;;;3.95;2.20;;;;;;;;;;10244578;28;20114;-82
2023/05/15 17:29:35;;;;;;;2.92;1.80;;;;;;;;;;10246477;28;20062;-86
2023/05/15 17:34:36;;;;;;;2.90;1.95;;;;;;;;;;10210060;28;20125;-83
2023/05/15 17:39:37;;;;;;;3.65;2.03;;;;;;;;;;10228181;28;20039;-84
2023/05/15 17:44:38;;;;;;;3.17;2.20;;;;;;;;;;10240256;28;20043;-83
2023/05/15 17:49:39;;;;;;;3.63;2.00;;;;;;;;;;10243311;28;20043;-84
2023/05/15 17:54:40;;;;;;;4.85;2.30;;;;;;;;;;10225572;28;20747;-81
2023/05/15 17:59:41;;;;;;;17.15;7.60;;;;;;;;;;10226690;28;20035;-82
2023/05/15 18:04:43;;;;;;;19.10;8.73;;;;;;;;;;10245588;28;20051;-84
2023/05/15 18:09:44;;;;;;;11.82;4.75;;;;;;;;;;10244893;28;20031;-83
2023/05/15 18:14:45;;;;;;;8.30;4.50;;;;;;;;;;10218289;28;20124;-82
2023/05/15 18:19:46;;;;;;;16.63;8.05;;;;;;;;;;10205720;28;20040;-84
2023/05/15 18:24:47;;;;;;;11.13;6.82;;;;;;;;;;10237432;28;20047;-84
2023/05/15 18:29:48;;;;;;;17.48;8.98;;;;;;;;;;10236153;28;20487;-82
2023/05/15 18:34:49;;;;;;;16.10;8.00;;;;;;;;;;10256115;28;20427;-82
2023/05/15 18:39:50;;;;;;;13.98;7.60;;;;;;;;;;10222383;28;20028;-83
2023/05/15 18:44:51;;;;;;;21.13;10.85;;;;;;;;;;10240258;28;20043;-84
2023/05/15 18:49:52;;;;;;;44.13;20.73;;;;;;;;;;10223658;28;20476;-81
2023/05/15 18:54:56;;;;;;;29.50;14.48;;;;;;;;;;10243376;28;20038;-82
2023/05/15 18:59:57;;;;;;;25.45;11.80;;;;;;;;;;10224195;28;20035;-81
2023/05/15 19:04:58;;;;;;;34.47;17.10;;;;;;;;;;10200972;29;20411;-82
2023/05/15 19:09:59;;;;;;;16.40;8.65;;;;;;;;;;10215759;29;20024;-83
2023/05/15 19:15:00;;;;;;;12.48;7.13;;;;;;;;;;10197472;29;20039;-83
2023/05/15 19:20:01;;;;;;;9.20;5.65;;;;;;;;;;10197661;29;20038;-82
2023/05/15 19:25:03;;;;;;;7.35;4.50;;;;;;;;;;10199036;29;20095;-82
2023/05/15 19:30:05;;;;;;;10.48;6.15;;;;;;;;;;10199399;29;20047;-82
2023/05/15 19:35:06;;;;;;;10.98;6.57;;;;;;;;;;10182354;29;20515;-86
2023/05/15 19:40:09;;;;;;;13.52;7.68;;;;;;;;;;10199628;29;20051;-83
2023/05/15 19:45:10;;;;;;;13.77;7.70;;;;;;;;;;10200426;29;20055;-87
2023/05/15 19:50:11;;;;;;;28.35;16.88;;;;;;;;;;10190244;29;20031;-83
2023/05/15 19:55:12;;;;;;;19.83;10.65;;;;;;;;;;10188090;29;20127;-83
2023/05/15 20:00:13;;;;;;;11.75;6.45;;;;;;;;;;10195561;29;20423;-86
2023/05/15 20:05:15;;;;;;;9.65;5.95;;;;;;;;;;10238011;28;20066;-82
2023/05/15 20:10:17;;;;;;;12.07;5.93;;;;;;;;;;10235494;28;20058;-82
2023/05/15 20:15:18;;;;;;;15.05;8.27;;;;;;;;;;10227413;28;20061;-84
2023/05/15 20:20:20;;;;;;;13.30;7.13;;;;;;;;;;10229619;28;20109;-84
2023/05/15 20:25:21;;;;;;;14.32;8.68;;;;;;;;;;10211442;28;20047;-83
2023/05/15 20:30:22;;;;;;;14.15;8.90;;;;;;;;;;10219229;28;20036;-85
2023/05/15 20:35:23;;;;;;;11.65;7.85;;;;;;;;;;10229899;28;20039;-83
2023/05/15 20:40:25;;;;;;;13.93;9.05;;;;;;;;;;10221029;28;20030;-84
2023/05/15 20:45:26;;;;;;;14.07;8.48;;;;;;;;;;10232638;28;20035;-83
2023/05/15 20:50:27;;;;;;;14.07;9.02;;;;;;;;;;10239486;28;20035;-83
2023/05/15 20:55:28;;;;;;;16.30;9.05;;;;;;;;;;10224260;28;20046;-83
2023/05/15 21:00:29;;;;;;;13.90;8.18;;;;;;;;;;10228900;28;20038;-84
2023/05/15 21:05:30;;;;;;;21.83;12.52;;;;;;;;;;10211198;28;20141;-85
2023/05/15 21:10:31;;;;;;;16.98;10.32;;;;;;;;;;10238544;28;20175;-84
2023/05/15 21:15:32;;;;;;;15.63;9.18;;;;;;;;;;10240406;28;20039;-83
2023/05/15 21:20:33;;;;;;;12.90;8.02;;;;;;;;;;10235020;28;20085;-84
2023/05/15 21:25:34;;;;;;;14.55;8.57;;;;;;;;;;10229169;28;20126;-85
2023/05/15 21:30:35;;;;;;;16.38;10.32;;;;;;;;;;10244089;28;20102;-83
2023/05/15 21:35:36;;;;;;;20.05;13.02;;;;;;;;;;10228702;28;20039;-84
2023/05/15 21:40:38;;;;;;;22.08;14.57;;;;;;;;;;10238429;28;20050;-83
2023/05/15 21:45:39;;;;;;;19.30;14.52;;;;;;;;;;10220668;28;20488;-82
2023/05/15 21:50:40;;;;;;;26.17;17.23;;;;;;;;;;10237523;28;20074;-83
2023/05/15 21:55:43;;;;;;;27.58;18.20;;;;;;;;;;10233402;28;20039;-82
2023/05/15 22:00:44;;;;;;;26.92;18.27;;;;;;;;;;10237980;28;20039;-80
2023/05/15 22:05:45;;;;;;;27.08;18.70;;;;;;;;;;10221166;28;20724;-82
2023/05/15 22:10:46;;;;;;;24.55;17.70;;;;;;;;;;10238668;28;20472;-81
2023/05/15 22:15:47;;;;;;;27.38;19.20;;;;;;;;;;10215822;28;20032;-82
2023/05/15 22:20:49;;;;;;;29.30;20.38;;;;;;;;;;10231424;28;20400;-85
2023/05/15 22:25:50;;;;;;;31.48;21.08;;;;;;;;;;10234303;28;20035;-84
2023/05/15 22:30:51;;;;;;;27.58;18.45;;;;;;;;;;10235117;28;20027;-81
2023/05/15 22:35:52;;;;;;;25.83;17.27;;;;;;;;;;10229566;28;20058;-81
2023/05/15 22:40:53;;;;;;;22.98;13.73;;;;;;;;;;10213801;28;20552;-85
2023/05/15 22:45:55;;;;;;;21.52;13.90;;;;;;;;;;10222139;28;20084;-82
2023/05/15 22:50:56;;;;;;;21.92;15.20;;;;;;;;;;10231178;28;20024;-82
2023/05/15 22:55:57;;;;;;;26.20;17.25;;;;;;;;;;10235634;28;20027;-82
2023/05/15 23:00:59;;;;;;;29.02;19.23;;;;;;;;;;10241014;28;20034;-85
2023/05/15 23:06:00;;;;;;;33.85;21.98;;;;;;;;;;10232388;28;20054;-85
2023/05/15 23:11:01;;;;;;;28.42;19.45;;;;;;;;;;10241644;28;20045;-81
2023/05/15 23:16:02;;;;;;;29.35;20.63;;;;;;;;;;10231889;28;20035;-83
2023/05/15 23:21:03;;;;;;;26.25;17.20;;;;;;;;;;10221646;28;20403;-82
2023/05/15 23:26:04;;;;;;;20.63;14.52;;;;;;;;;;10237014;28;20126;-83
2023/05/15 23:31:05;;;;;;;26.33;17.30;;;;;;;;;;10228155;28;20038;-83
2023/05/15 23:36:06;;;;;;;23.25;16.00;;;;;;;;;;10239240;28;20050;-82
2023/05/15 23:41:07;;;;;;;25.70;17.38;;;;;;;;;;10216110;28;20031;-82
2023/05/15 23:46:08;;;;;;;29.95;18.92;;;;;;;;;;10241498;28;20042;-82
2023/05/15 23:51:10;;;;;;;20.98;14.18;;;;;;;;;;10241615;28;20035;-84
2023/05/15 23:56:11;;;;;;;22.27;14.75;;;;;;;;;;10243711;28;20038;-84
